Aérodrome :
LOGIN :

S'inscrire | Disclaimer

   EN    FR    IT 

 










Légende :    VFR   VFR Marginal   IFR   IFR Intensif   IFR Très Intensif
Visi : 
Plafond : 
>= 8 km
>= 3000ft
5 à 8 km
1000 à 3000 ft
1500m à 5 km
500 à 1000 ft
800 à 1500m
200 à 500 ft
< 800m
< 200 ft
Symboles :   Orages  Brouillard  Fortes neiges  Fortes précipitations  Vent > 20 kt
SIGMETs :   Divers  Orages  Givrage  Turbulence  Onde Orograph.  Cendres Volcan.







- Altitude de l'aérodrome : 13 ft
- Code IATA : LYX
- Voir les cartes d'approche


EGMD - Lydd

DERNIER METAR :
  • 222150Z AUTO 02005KT 9999 -RA BKN026/// OVC031/// 06/05 Q1010

METARs EXPIRÉS :
  • 222120Z AUTO 01004KT 9999 -RA FEW018/// SCT026/// BKN032/// 06/05 Q1010 RERA
  • 222050Z AUTO 03003KT 9999 -RA FEW015/// SCT021/// BKN027/// 06/05 Q1010
  • 222020Z AUTO 33003KT 9999 FEW017/// 06/05 Q1010
  • 221950Z AUTO 27004KT 9999 -RA BKN013/// OVC019/// 06/05 Q1010
  • 221920Z AUTO VRB03KT 5000 -RA BKN015/// BKN020/// OVC026/// 06/05 Q1010 RERA
  • 221850Z AUTO 26004KT 9999 BKN018/// BKN024/// OVC039/// 07/05 Q1010

TAF TAF EGMD
Valide du 22 à 21h jusqu'au 23 à 06h UTC


221958Z 2221/2306 VRB03KT 9999 SCT020
BECMG 2221/2224 14010KT
TEMPO 2221/2306 7000 SHRA BKN014
BECMG 2300/2303 07012KT
ATIS : +44 1797 322 422
Pas de NOTAMs connus pour ce terrain.



MET'MAP, la Météo Aéronautique d'un coup d'oeil ! - Copyright ORBIFLY Décembre 2007 - Disclaimer

ORBIFLY MET'MAP TEAM :

Programmation & Développement : Alexandra Zaïnal
Conception & Développement : Baudouin d'Aumeries
Co-Programmation & Développement : Marc-Olivier Méhu
Soutien technique & logistique : Manuel Goepfert

Contact : metmap@orbifly.com




SOURCES & CREDITS :

   NOAA